Terminal Aerodrome Forecast
Issued by NWS Mt. Holly, NJ

Home | Current Version | Previous Version | Text Only | Print | Product List | Glossary On
Versions: 1 2 3 4 5 6 7 8 9 10 11 12 13 14 15 16 17 18 19 20 21 22 23
000
FTUS41 KPHI 302000 AAA
TAFRDG
TAF AMD
KRDG 302052Z 3021/3118 32020G35KT P6SM SCT035
      TEMPO 3021/3023 2SM -SN BKN030
     FM310800 32017G30KT P6SM SKC
     FM311400 31018G32KT P6SM SCT250=

USA.gov is the U.S. government's official web portal to all federal, state and local government web resources and services.